Time;durP1;ratioP1;P1;durP2;ratioP2;P2;SDS_P1;SDS_P2;PMS_P1;PMS_P2;Temp;Humidity;BMP_temperature;BMP_pressure;BME280_temperature;BME280_humidity;BME280_pressure;Samples;Min_cycle;Max_cycle;Signal;HPM_P1;HPM_P2
2021/01/30 00:01:45;;;;;;;8.07;5.10;;;8.30;99.90;;;;;;5036512;28;20798;-78
2021/01/30 00:04:12;;;;;;;7.90;5.30;;;8.30;99.90;;;;;;5036490;28;20417;-78
2021/01/30 00:06:38;;;;;;;8.10;5.47;;;8.30;99.90;;;;;;5039602;28;20512;-78
2021/01/30 00:09:04;;;;;;;11.20;5.60;;;8.20;99.90;;;;;;5018024;28;20462;-78
2021/01/30 00:11:30;;;;;;;9.90;5.97;;;8.30;99.90;;;;;;5013549;28;20494;-78
2021/01/30 00:13:55;;;;;;;13.50;7.63;;;8.30;99.90;;;;;;5027633;28;20199;-77
2021/01/30 00:16:21;;;;;;;6.90;6.00;;;8.30;99.90;;;;;;5025035;28;20176;-78
2021/01/30 00:18:47;;;;;;;12.07;6.70;;;8.40;99.90;;;;;;5036919;28;20167;-78
2021/01/30 00:21:12;;;;;;;9.47;6.83;;;8.30;99.90;;;;;;5037603;28;20180;-79
2021/01/30 00:23:38;;;;;;;9.63;6.80;;;8.30;99.90;;;;;;5036870;28;20179;-79
2021/01/30 00:26:03;;;;;;;9.10;6.60;;;8.30;99.90;;;;;;5034468;28;20164;-78
2021/01/30 00:28:29;;;;;;;11.20;7.10;;;8.40;99.90;;;;;;5034131;28;20184;-78
2021/01/30 00:30:55;;;;;;;11.53;7.13;;;8.40;99.90;;;;;;5033630;28;20207;-78
2021/01/30 00:33:20;;;;;;;8.63;6.60;;;8.40;99.90;;;;;;5035336;28;20186;-78
2021/01/30 00:35:46;;;;;;;9.43;6.43;;;8.30;99.90;;;;;;5032653;28;20198;-78
2021/01/30 00:38:12;;;;;;;9.43;6.93;;;8.30;99.90;;;;;;5034522;28;20156;-78
2021/01/30 00:40:38;;;;;;;13.40;6.57;;;8.30;99.90;;;;;;5033135;28;20493;-78
2021/01/30 00:43:04;;;;;;;10.93;7.33;;;8.20;99.90;;;;;;5026234;28;20200;-78
2021/01/30 00:45:30;;;;;;;8.30;7.17;;;8.20;99.90;;;;;;5023170;28;20282;-78
2021/01/30 00:47:57;;;;;;;19.03;7.23;;;8.20;99.90;;;;;;5029574;28;20434;-79
2021/01/30 00:50:23;;;;;;;8.53;5.63;;;8.20;99.90;;;;;;5031932;28;20942;-79
2021/01/30 00:52:48;;;;;;;10.70;5.20;;;8.20;99.90;;;;;;5032615;28;20517;-78
2021/01/30 00:55:18;;;;;;;11.67;6.37;;;8.20;99.90;;;;;;5034108;28;20425;-78
2021/01/30 00:57:43;;;;;;;10.50;5.63;;;8.20;99.90;;;;;;5049250;28;20172;-78
2021/01/30 01:00:19;;;;;;;6.40;4.63;;;8.10;99.90;;;;;;5035865;28;20422;-79
2021/01/30 01:02:45;;;;;;;10.37;6.00;;;8.10;99.90;;;;;;5032404;28;20199;-78
2021/01/30 01:05:13;;;;;;;7.30;5.70;;;8.10;99.90;;;;;;5032324;28;20429;-77
2021/01/30 01:07:38;;;;;;;6.00;5.10;;;8.10;99.90;;;;;;5031848;28;20301;-78
2021/01/30 01:10:05;;;;;;;8.93;5.70;;;8.10;99.90;;;;;;5030198;28;20462;-77
2021/01/30 01:12:30;;;;;;;10.00;5.80;;;8.00;99.90;;;;;;5031562;28;20229;-77
2021/01/30 01:14:56;;;;;;;9.73;4.70;;;8.10;99.90;;;;;;5027913;28;20463;-77
2021/01/30 01:17:21;;;;;;;9.90;5.17;;;8.00;99.90;;;;;;5023210;28;20656;-77
2021/01/30 01:19:47;;;;;;;8.70;4.90;;;8.00;99.90;;;;;;5031575;28;20175;-77
2021/01/30 01:22:13;;;;;;;6.10;4.00;;;7.90;99.90;;;;;;5031694;28;20733;-78
2021/01/30 01:24:38;;;;;;;13.57;4.20;;;7.90;99.90;;;;;;5031555;28;20537;-77
2021/01/30 01:27:04;;;;;;;6.23;3.87;;;7.90;99.90;;;;;;5020028;28;20191;-78
2021/01/30 01:29:31;;;;;;;7.13;3.30;;;8.00;99.90;;;;;;5031166;28;20233;-78
2021/01/30 01:31:57;;;;;;;5.37;3.77;;;8.00;99.90;;;;;;5028535;28;20206;-77
2021/01/30 01:34:25;;;;;;;4.37;3.17;;;8.00;99.90;;;;;;5032222;28;20823;-78
2021/01/30 01:37:05;;;;;;;8.37;4.03;;;8.00;99.90;;;;;;5031706;28;20255;-77
2021/01/30 01:39:33;;;;;;;6.27;3.70;;;8.00;99.90;;;;;;5028561;28;20427;-78
2021/01/30 01:42:08;;;;;;;4.67;3.60;;;8.00;99.90;;;;;;5030589;28;20465;-79
2021/01/30 01:44:34;;;;;;;6.70;5.30;;;8.00;99.90;;;;;;5033554;28;20433;-78
2021/01/30 01:47:01;;;;;;;9.83;5.53;;;8.00;99.90;;;;;;5032492;28;20966;-78
2021/01/30 01:49:30;;;;;;;10.50;5.13;;;8.00;99.90;;;;;;5033396;28;20422;-78
2021/01/30 01:52:19;;;;;;;7.83;5.87;;;8.00;99.90;;;;;;5032350;28;20430;-77
2021/01/30 01:54:51;;;;;;;9.60;6.33;;;8.00;99.90;;;;;;5029563;28;20497;-78
2021/01/30 01:57:17;;;;;;;10.00;6.23;;;8.00;99.90;;;;;;5028835;28;20989;-78
2021/01/30 01:59:50;;;;;;;8.93;6.33;;;8.00;99.90;;;;;;5030288;28;20443;-78
2021/01/30 02:02:16;;;;;;;9.43;6.23;;;8.10;99.90;;;;;;5025883;28;20253;-78
2021/01/30 02:05:04;;;;;;;9.13;6.87;;;8.10;99.90;;;;;;5020852;28;20434;-78
2021/01/30 02:07:30;;;;;;;8.80;6.80;;;8.10;99.90;;;;;;5036260;28;20433;-77
2021/01/30 02:09:58;;;;;;;10.87;7.67;;;8.10;99.90;;;;;;5034196;28;20511;-78
2021/01/30 02:12:26;;;;;;;11.37;7.70;;;8.10;99.90;;;;;;5039363;28;20440;-78
2021/01/30 02:14:54;;;;;;;11.77;7.17;;;8.20;99.90;;;;;;5027177;28;20932;-77
2021/01/30 02:17:32;;;;;;;8.70;7.77;;;8.20;99.90;;;;;;5033904;28;21081;-77
2021/01/30 02:20:16;;;;;;;12.93;8.13;;;8.10;99.90;;;;;;5033968;28;20422;-78
2021/01/30 02:23:03;;;;;;;17.73;8.80;;;8.10;99.90;;;;;;5024766;28;21010;-78
2021/01/30 02:25:40;;;;;;;21.50;8.83;;;7.90;99.90;;;;;;5037607;28;20425;-78
2021/01/30 02:28:24;;;;;;;14.20;8.40;;;7.90;99.90;;;;;;5035818;28;20432;-79
2021/01/30 02:31:27;;;;;;;14.43;8.40;;;7.70;99.90;;;;;;5037579;28;20481;-77
2021/01/30 02:34:21;;;;;;;13.90;8.00;;;7.60;99.90;;;;;;5035155;28;20421;-77
2021/01/30 02:37:03;;;;;;;16.10;7.80;;;7.40;99.90;;;;;;5049729;28;20503;-78
2021/01/30 02:39:42;;;;;;;11.50;7.80;;;7.30;99.90;;;;;;5034384;28;20517;-77
2021/01/30 02:42:22;;;;;;;12.70;10.57;;;7.20;99.90;;;;;;5034759;28;20438;-78
2021/01/30 02:44:55;;;;;;;21.60;13.80;;;7.00;99.90;;;;;;5033358;28;20430;-78
2021/01/30 02:47:22;;;;;;;18.30;14.03;;;6.90;99.90;;;;;;5025017;28;21025;-78
2021/01/30 02:49:53;;;;;;;31.30;18.27;;;6.90;99.90;;;;;;5022776;28;20462;-78
2021/01/30 02:52:23;;;;;;;20.50;15.30;;;6.80;99.90;;;;;;5036497;28;20438;-78
2021/01/30 02:54:54;;;;;;;23.73;14.70;;;6.70;99.90;;;;;;5035412;28;20499;-78
2021/01/30 02:57:23;;;;;;;27.80;17.87;;;6.60;99.90;;;;;;5026933;28;20437;-78
2021/01/30 02:59:52;;;;;;;35.30;17.10;;;6.40;99.90;;;;;;5033708;28;20414;-78
2021/01/30 03:02:22;;;;;;;24.73;16.47;;;6.30;99.90;;;;;;5033456;28;20962;-78
2021/01/30 03:04:51;;;;;;;26.03;17.53;;;6.10;99.90;;;;;;5034113;28;20925;-77
2021/01/30 03:07:36;;;;;;;30.10;18.57;;;6.10;99.90;;;;;;5034324;28;20651;-78
2021/01/30 03:10:27;;;;;;;35.20;16.90;;;6.00;99.90;;;;;;5015274;28;20465;-77
2021/01/30 03:13:15;;;;;;;32.13;17.60;;;5.90;99.90;;;;;;5030477;28;20830;-78
2021/01/30 03:15:47;;;;;;;28.70;16.67;;;6.00;99.90;;;;;;5035306;28;20429;-77
2021/01/30 03:18:17;;;;;;;34.10;20.57;;;6.00;99.90;;;;;;5031856;28;21505;-78
2021/01/30 03:20:45;;;;;;;28.83;21.33;;;5.80;99.90;;;;;;5027498;28;20507;-77
2021/01/30 03:23:12;;;;;;;35.43;20.80;;;5.70;99.90;;;;;;5034688;28;20472;-78
2021/01/30 03:25:39;;;;;;;35.10;23.37;;;5.40;99.90;;;;;;5029909;28;20426;-77
2021/01/30 03:28:06;;;;;;;35.70;21.97;;;5.50;99.90;;;;;;5023701;28;20427;-78
2021/01/30 03:30:32;;;;;;;40.97;19.93;;;5.30;99.90;;;;;;5029256;28;20579;-78
2021/01/30 03:32:59;;;;;;;30.80;18.17;;;5.30;99.90;;;;;;5037892;28;20445;-78
2021/01/30 03:35:25;;;;;;;29.73;16.40;;;5.30;99.90;;;;;;5035380;28;20422;-78
2021/01/30 03:37:50;;;;;;;21.07;13.63;;;5.20;99.90;;;;;;5025420;28;21003;-78
2021/01/30 03:40:18;;;;;;;16.67;12.40;;;5.20;99.90;;;;;;5022113;28;20591;-78
2021/01/30 03:42:44;;;;;;;17.10;11.83;;;5.10;99.90;;;;;;5033384;28;20206;-78
2021/01/30 03:45:13;;;;;;;17.00;12.23;;;5.10;99.90;;;;;;5033764;28;20418;-78
2021/01/30 03:47:39;;;;;;;20.90;13.57;;;5.10;99.90;;;;;;5029964;28;20215;-77
2021/01/30 03:50:07;;;;;;;17.87;12.33;;;4.90;99.90;;;;;;5032127;28;20491;-78
2021/01/30 03:52:32;;;;;;;22.10;13.47;;;4.90;99.90;;;;;;5034730;28;20450;-78
2021/01/30 03:54:58;;;;;;;66.43;37.83;;;5.00;99.90;;;;;;5032790;28;20995;-78
2021/01/30 03:57:24;;;;;;;19.07;13.20;;;5.00;99.90;;;;;;5033372;28;20171;-77
2021/01/30 03:59:50;;;;;;;18.43;12.50;;;4.90;99.90;;;;;;5023676;28;20314;-77
2021/01/30 04:02:16;;;;;;;19.07;12.33;;;4.90;99.90;;;;;;5027004;28;20687;-77
2021/01/30 04:04:44;;;;;;;16.63;11.57;;;4.90;99.90;;;;;;5032524;28;20460;-77
2021/01/30 04:07:11;;;;;;;17.73;12.57;;;4.80;99.90;;;;;;5032480;28;20430;-78
2021/01/30 04:09:37;;;;;;;16.20;12.83;;;4.90;99.90;;;;;;5032478;28;20543;-78
2021/01/30 04:12:04;;;;;;;20.77;13.53;;;4.80;99.90;;;;;;5036776;28;20442;-77
2021/01/30 04:14:29;;;;;;;19.90;13.57;;;4.90;99.90;;;;;;5034451;28;20453;-77
2021/01/30 04:16:55;;;;;;;19.13;13.77;;;4.90;99.90;;;;;;5032359;28;20458;-78
2021/01/30 04:19:20;;;;;;;23.30;16.37;;;5.00;99.90;;;;;;5021840;28;20174;-77
2021/01/30 04:21:46;;;;;;;26.33;15.77;;;5.00;99.90;;;;;;5032378;28;20196;-77
2021/01/30 04:24:12;;;;;;;27.03;15.47;;;4.90;99.90;;;;;;5030533;28;20176;-77
2021/01/30 04:26:37;;;;;;;22.10;14.47;;;4.90;99.90;;;;;;5034015;28;20164;-77
2021/01/30 04:29:03;;;;;;;29.53;18.23;;;4.80;99.90;;;;;;5015594;28;20235;-77
2021/01/30 04:31:29;;;;;;;27.60;19.20;;;4.70;99.90;;;;;;5024868;28;20699;-77
2021/01/30 04:33:55;;;;;;;33.83;21.23;;;4.60;99.90;;;;;;5032898;28;20527;-77
2021/01/30 04:36:21;;;;;;;30.47;22.13;;;4.40;99.90;;;;;;5033427;28;20458;-77
2021/01/30 04:38:48;;;;;;;36.13;23.43;;;4.30;99.90;;;;;;5020433;28;20215;-77
2021/01/30 04:41:28;;;;;;;32.10;22.03;;;4.10;99.90;;;;;;5030690;28;20782;-77
2021/01/30 04:44:24;;;;;;;32.43;23.57;;;4.10;99.90;;;;;;5013037;28;20426;-77
2021/01/30 04:47:00;;;;;;;33.47;23.00;;;4.20;99.90;;;;;;5031185;28;20841;-77
2021/01/30 04:49:47;;;;;;;37.93;23.17;;;4.10;99.90;;;;;;5031274;28;20438;-77
2021/01/30 04:52:19;;;;;;;35.17;24.23;;;4.10;99.90;;;;;;5011584;28;20939;-77
2021/01/30 04:54:54;;;;;;;37.57;22.70;;;4.10;99.90;;;;;;5028635;28;20819;-77
2021/01/30 04:58:00;;;;;;;34.37;23.60;;;4.10;99.90;;;;;;5034176;28;20397;-77
2021/01/30 05:00:47;;;;;;;34.13;22.90;;;4.10;99.90;;;;;;5031393;28;20520;-77
2021/01/30 05:03:18;;;;;;;40.50;23.23;;;4.00;99.90;;;;;;5032958;28;20433;-78
2021/01/30 05:05:49;;;;;;;33.73;22.23;;;4.00;99.90;;;;;;5019888;28;20787;-78
2021/01/30 05:08:31;;;;;;;30.23;20.70;;;4.00;99.90;;;;;;5013436;28;20427;-78
2021/01/30 05:11:01;;;;;;;33.10;20.43;;;3.90;99.90;;;;;;5040357;28;20446;-78
2021/01/30 05:13:34;;;;;;;36.23;23.17;;;3.90;99.90;;;;;;5031477;28;20516;-77
2021/01/30 05:16:11;;;;;;;40.07;23.53;;;3.80;99.90;;;;;;5029478;28;20450;-77
2021/01/30 05:18:47;;;;;;;36.17;23.30;;;3.90;99.90;;;;;;5031565;28;20420;-77
2021/01/30 05:21:35;;;;;;;34.27;21.40;;;3.90;99.90;;;;;;5031699;28;20414;-77
2021/01/30 05:24:01;;;;;;;34.20;21.50;;;3.90;99.90;;;;;;5030616;28;20432;-77
2021/01/30 05:26:53;;;;;;;33.43;21.53;;;4.00;99.90;;;;;;5031128;28;20484;-77
2021/01/30 05:29:30;;;;;;;33.17;22.30;;;3.90;99.90;;;;;;5016190;28;20175;-78
2021/01/30 05:32:14;;;;;;;36.70;20.70;;;3.70;99.90;;;;;;5031509;28;20461;-77
2021/01/30 05:35:01;;;;;;;32.40;20.73;;;3.80;99.90;;;;;;5031538;28;20536;-77
2021/01/30 05:37:56;;;;;;;32.70;20.00;;;3.90;99.90;;;;;;5020161;28;20470;-78
2021/01/30 05:40:34;;;;;;;31.10;17.80;;;3.80;99.90;;;;;;5028568;28;20816;-78
2021/01/30 05:43:38;;;;;;;26.67;19.43;;;3.70;99.90;;;;;;5032977;28;20485;-77
2021/01/30 05:46:06;;;;;;;28.70;19.73;;;3.80;99.90;;;;;;5032562;28;20438;-77
2021/01/30 05:48:38;;;;;;;32.20;21.90;;;3.80;99.90;;;;;;5033822;28;20433;-77
2021/01/30 05:51:33;;;;;;;29.03;20.77;;;3.80;99.90;;;;;;5023080;28;20450;-77
2021/01/30 05:54:00;;;;;;;26.43;19.97;;;3.70;99.90;;;;;;5031457;28;20430;-77
2021/01/30 05:56:28;;;;;;;29.20;21.50;;;3.80;99.90;;;;;;5023730;28;20426;-77
2021/01/30 05:58:54;;;;;;;31.43;20.90;;;3.80;99.90;;;;;;5035153;28;20829;-78
2021/01/30 06:01:26;;;;;;;36.50;22.63;;;3.70;99.90;;;;;;5035550;28;20794;-77
2021/01/30 06:03:59;;;;;;;33.80;22.47;;;3.80;99.90;;;;;;5034840;28;20426;-77
2021/01/30 06:06:55;;;;;;;32.83;23.40;;;3.70;99.90;;;;;;5034184;28;20434;-77
2021/01/30 06:09:37;;;;;;;31.83;22.23;;;3.80;99.90;;;;;;5035890;28;20414;-77
2021/01/30 06:12:27;;;;;;;32.23;22.37;;;3.60;99.90;;;;;;5035142;28;20823;-77
2021/01/30 06:14:55;;;;;;;31.97;22.70;;;3.70;99.90;;;;;;5034483;28;20437;-77
2021/01/30 06:17:24;;;;;;;33.30;22.47;;;3.80;99.90;;;;;;5034998;28;20437;-77
2021/01/30 06:20:12;;;;;;;30.30;22.83;;;3.90;99.90;;;;;;5030490;28;20431;-76
2021/01/30 06:22:38;;;;;;;35.53;24.33;;;3.80;99.90;;;;;;5027741;28;21021;-77
2021/01/30 06:25:41;;;;;;;33.80;24.30;;;3.90;99.90;;;;;;5030534;28;20924;-77
2021/01/30 06:28:07;;;;;;;33.57;23.77;;;3.90;99.90;;;;;;5016606;28;20403;-77
2021/01/30 06:30:37;;;;;;;34.07;23.53;;;3.90;99.90;;;;;;5031163;28;20456;-77
2021/01/30 06:33:08;;;;;;;37.37;24.43;;;3.90;99.90;;;;;;5022171;28;20196;-77
2021/01/30 06:35:38;;;;;;;38.27;23.57;;;3.90;99.90;;;;;;5027067;28;20430;-77
2021/01/30 06:38:19;;;;;;;34.70;22.73;;;4.00;99.90;;;;;;5035141;28;20418;-77
2021/01/30 06:40:52;;;;;;;35.20;23.07;;;4.00;99.90;;;;;;5033581;28;20547;-77
2021/01/30 06:43:34;;;;;;;33.70;23.53;;;3.90;99.90;;;;;;5031580;28;20447;-77
2021/01/30 06:46:10;;;;;;;34.50;20.60;;;4.00;99.90;;;;;;5034940;28;20445;-77
2021/01/30 06:48:38;;;;;;;32.77;22.23;;;4.00;99.90;;;;;;5035636;28;20934;-77
2021/01/30 06:51:25;;;;;;;31.20;22.70;;;4.10;99.90;;;;;;5033996;28;20454;-77
2021/01/30 06:53:51;;;;;;;32.53;21.83;;;4.10;99.90;;;;;;5026516;28;20433;-76
2021/01/30 06:56:27;;;;;;;25.47;18.50;;;4.00;99.90;;;;;;5033796;28;20441;-77
2021/01/30 06:59:06;;;;;;;23.57;15.60;;;3.70;99.90;;;;;;5034434;28;20468;-77
2021/01/30 07:01:44;;;;;;;24.37;17.90;;;3.60;99.90;;;;;;5034187;28;20531;-77
2021/01/30 07:04:24;;;;;;;22.80;16.67;;;3.50;99.90;;;;;;5035094;28;20444;-77
2021/01/30 07:07:21;;;;;;;22.87;15.87;;;3.50;99.90;;;;;;5035990;28;20475;-77
2021/01/30 07:10:15;;;;;;;22.23;15.57;;;3.50;99.90;;;;;;5034403;28;20493;-77
2021/01/30 07:12:49;;;;;;;26.70;18.00;;;3.60;99.90;;;;;;5034125;28;20446;-78
2021/01/30 07:15:30;;;;;;;26.70;18.60;;;3.50;99.90;;;;;;5033188;28;20439;-77
2021/01/30 07:18:19;;;;;;;27.50;17.57;;;3.30;99.90;;;;;;5030311;28;20447;-77
2021/01/30 07:21:04;;;;;;;23.57;16.27;;;3.30;99.90;;;;;;5028372;28;20535;-77
2021/01/30 07:23:38;;;;;;;28.23;18.70;;;3.50;99.90;;;;;;5038810;28;20433;-77
2021/01/30 07:26:28;;;;;;;26.80;17.67;;;3.40;99.90;;;;;;5035532;28;20421;-77
2021/01/30 07:29:17;;;;;;;25.37;17.03;;;3.30;99.90;;;;;;5033734;28;20469;-78
2021/01/30 07:32:01;;;;;;;22.63;15.77;;;3.20;99.90;;;;;;5033408;28;20465;-77
2021/01/30 07:34:37;;;;;;;24.97;15.87;;;3.20;99.90;;;;;;5026944;28;20436;-78
2021/01/30 07:37:13;;;;;;;26.03;16.77;;;3.20;99.90;;;;;;5034835;28;20421;-77
2021/01/30 07:39:52;;;;;;;26.20;17.30;;;3.20;99.90;;;;;;5034083;28;20837;-78
2021/01/30 07:42:40;;;;;;;28.93;17.63;;;3.10;99.90;;;;;;5018059;28;20457;-77
2021/01/30 07:45:27;;;;;;;26.47;18.63;;;3.00;99.90;;;;;;5033235;28;20430;-77
2021/01/30 07:48:16;;;;;;;28.20;19.40;;;2.90;99.90;;;;;;5035421;28;20410;-78
2021/01/30 07:50:48;;;;;;;29.60;19.73;;;2.90;99.90;;;;;;5024920;28;20456;-77
2021/01/30 07:53:23;;;;;;;28.33;19.73;;;2.90;99.90;;;;;;5030760;28;21005;-76
2021/01/30 07:56:04;;;;;;;31.80;20.80;;;2.90;99.90;;;;;;5031234;28;20422;-77
2021/01/30 07:59:01;;;;;;;29.40;20.43;;;2.80;99.90;;;;;;5026913;28;20453;-76
2021/01/30 08:01:29;;;;;;;32.43;20.53;;;2.80;99.90;;;;;;5032956;28;20449;-77
2021/01/30 08:04:10;;;;;;;31.33;21.10;;;2.70;99.90;;;;;;5034213;28;20450;-77
2021/01/30 08:06:39;;;;;;;35.90;23.27;;;2.80;99.90;;;;;;5031678;28;20434;-77
2021/01/30 08:09:16;;;;;;;35.63;22.67;;;2.80;99.90;;;;;;5033486;28;20455;-77
2021/01/30 08:11:50;;;;;;;33.40;22.40;;;2.80;99.90;;;;;;5033845;28;20472;-77
2021/01/30 08:14:40;;;;;;;31.23;20.93;;;2.60;99.90;;;;;;5031583;28;20893;-77
2021/01/30 08:17:24;;;;;;;33.83;20.50;;;2.70;99.90;;;;;;5031609;28;20447;-77
2021/01/30 08:19:57;;;;;;;31.03;21.07;;;2.70;99.90;;;;;;5034099;28;20456;-77
2021/01/30 08:22:55;;;;;;;30.67;20.13;;;2.70;99.90;;;;;;5034060;28;20438;-77
2021/01/30 08:25:42;;;;;;;31.20;20.60;;;2.70;99.90;;;;;;5029600;28;20434;-77
2021/01/30 08:28:40;;;;;;;29.07;19.87;;;2.70;99.90;;;;;;5031296;28;20432;-78
2021/01/30 08:31:05;;;;;;;27.40;18.10;;;2.70;99.90;;;;;;5031484;28;20457;-77
2021/01/30 08:34:01;;;;;;;29.10;19.53;;;2.60;99.90;;;;;;5033141;28;20426;-77
2021/01/30 08:36:57;;;;;;;26.60;18.10;;;2.60;99.90;;;;;;5016048;28;20264;-78
2021/01/30 08:39:36;;;;;;;34.17;20.83;;;2.60;99.90;;;;;;5029891;28;20426;-77
2021/01/30 08:42:05;;;;;;;31.60;21.53;;;2.70;99.90;;;;;;5033171;28;20951;-77
2021/01/30 08:44:39;;;;;;;26.70;17.63;;;2.70;99.90;;;;;;5029974;28;20433;-77
2021/01/30 08:47:15;;;;;;;24.67;17.57;;;2.70;99.90;;;;;;5029414;28;20810;-77
2021/01/30 08:50:05;;;;;;;26.30;17.83;;;2.70;99.90;;;;;;5031624;28;20414;-77
2021/01/30 08:52:36;;;;;;;26.67;19.60;;;2.70;99.90;;;;;;5023766;28;20442;-77
2021/01/30 08:55:39;;;;;;;32.53;19.40;;;2.80;99.90;;;;;;5026364;28;20458;-77
2021/01/30 08:58:05;;;;;;;29.80;19.33;;;2.90;99.90;;;;;;5022512;28;20807;-76
2021/01/30 09:00:50;;;;;;;27.47;18.97;;;2.90;99.90;;;;;;5025957;28;20430;-77
2021/01/30 09:03:55;;;;;;;31.03;20.10;;;2.90;99.90;;;;;;5025786;28;20199;-77
2021/01/30 09:06:39;;;;;;;26.67;17.07;;;2.90;99.90;;;;;;5021991;28;20448;-77
2021/01/30 09:09:14;;;;;;;28.83;20.73;;;3.00;99.90;;;;;;5024990;28;20714;-77
2021/01/30 09:11:45;;;;;;;25.30;18.03;;;3.10;99.90;;;;;;5025653;28;20465;-77
2021/01/30 09:14:18;;;;;;;27.80;18.87;;;3.00;99.90;;;;;;5038491;28;20488;-77
2021/01/30 09:16:56;;;;;;;26.63;18.53;;;3.00;99.90;;;;;;5024463;28;20456;-77
2021/01/30 09:19:43;;;;;;;27.80;17.73;;;3.00;99.90;;;;;;5025020;28;20440;-77
2021/01/30 09:22:18;;;;;;;25.77;18.93;;;3.00;99.90;;;;;;5038348;28;20450;-76
2021/01/30 09:25:14;;;;;;;25.50;17.77;;;3.10;99.90;;;;;;5025998;28;20516;-77
2021/01/30 09:28:02;;;;;;;31.57;19.80;;;3.10;99.90;;;;;;5016997;28;21312;-77
2021/01/30 09:30:42;;;;;;;27.07;18.47;;;3.20;99.90;;;;;;5038882;28;20932;-77
2021/01/30 09:33:21;;;;;;;28.97;19.57;;;3.30;99.90;;;;;;5020731;28;20512;-78
2021/01/30 09:35:48;;;;;;;27.97;20.20;;;3.40;99.90;;;;;;5026978;28;20941;-76
2021/01/30 09:38:32;;;;;;;25.10;17.97;;;3.50;99.90;;;;;;5031844;28;20475;-77
2021/01/30 09:41:11;;;;;;;28.93;18.50;;;3.50;99.90;;;;;;5031720;28;20437;-77
2021/01/30 09:43:37;;;;;;;31.47;18.63;;;3.80;99.90;;;;;;5029949;28;20442;-77
2021/01/30 09:46:06;;;;;;;32.97;23.80;;;3.70;99.90;;;;;;5030301;28;20512;-77
2021/01/30 09:48:35;;;;;;;29.17;20.17;;;3.60;99.90;;;;;;5030932;28;20297;-77
2021/01/30 09:51:02;;;;;;;28.53;20.03;;;3.50;99.90;;;;;;5029056;28;20971;-77
2021/01/30 09:53:42;;;;;;;30.70;21.20;;;3.70;99.90;;;;;;5029945;28;20434;-77
2021/01/30 09:56:14;;;;;;;28.23;17.87;;;3.60;99.90;;;;;;5031896;28;20422;-77
2021/01/30 09:58:43;;;;;;;26.73;18.80;;;3.50;99.90;;;;;;5032795;28;20418;-77
2021/01/30 10:01:38;;;;;;;28.63;19.00;;;3.30;99.90;;;;;;5032296;28;20461;-77
2021/01/30 10:04:23;;;;;;;34.33;19.90;;;3.40;99.90;;;;;;5031701;28;20851;-77
2021/01/30 10:06:51;;;;;;;33.13;19.67;;;3.50;99.90;;;;;;5030897;28;20449;-77
2021/01/30 10:09:25;;;;;;;29.90;19.57;;;3.60;99.90;;;;;;5030807;28;20430;-77
2021/01/30 10:11:58;;;;;;;23.30;16.10;;;3.50;99.90;;;;;;5031834;28;20465;-77
2021/01/30 10:14:34;;;;;;;22.77;16.33;;;3.40;99.90;;;;;;5031806;28;20434;-77
2021/01/30 10:17:13;;;;;;;23.03;16.80;;;3.40;99.90;;;;;;5030194;28;20440;-76
2021/01/30 10:19:39;;;;;;;22.00;16.50;;;3.40;99.90;;;;;;5030798;28;20418;-77
2021/01/30 10:22:36;;;;;;;26.30;17.50;;;3.40;99.90;;;;;;5030586;28;20529;-77
2021/01/30 10:25:07;;;;;;;24.67;18.10;;;3.50;99.90;;;;;;5028617;28;20569;-76
2021/01/30 10:27:32;;;;;;;22.90;16.47;;;3.50;99.90;;;;;;5033531;28;20406;-76
2021/01/30 10:29:59;;;;;;;21.87;15.43;;;3.50;99.90;;;;;;5034853;28;20456;-76
2021/01/30 10:32:24;;;;;;;20.90;15.30;;;3.50;99.90;;;;;;5035221;28;20201;-75
2021/01/30 10:34:57;;;;;;;22.63;15.57;;;3.60;99.90;;;;;;5034274;28;20463;-75
2021/01/30 10:37:38;;;;;;;27.20;18.20;;;3.60;99.90;;;;;;5033631;28;20213;-76
2021/01/30 10:40:07;;;;;;;21.13;14.73;;;3.70;99.90;;;;;;5033736;28;20572;-76
2021/01/30 10:42:36;;;;;;;21.53;15.03;;;3.70;99.90;;;;;;5035327;28;20495;-76
2021/01/30 10:45:15;;;;;;;18.80;12.47;;;3.80;99.90;;;;;;5031413;28;20469;-76
2021/01/30 10:47:41;;;;;;;19.50;14.43;;;3.70;99.90;;;;;;5033496;28;20572;-76
2021/01/30 10:50:19;;;;;;;17.83;12.83;;;3.70;99.90;;;;;;5034158;28;21021;-75
2021/01/30 10:52:45;;;;;;;17.83;14.90;;;3.70;99.90;;;;;;5035473;28;20194;-76
2021/01/30 10:55:22;;;;;;;16.53;14.27;;;3.70;99.90;;;;;;5033468;28;20580;-76
2021/01/30 10:57:48;;;;;;;17.20;12.83;;;3.70;99.90;;;;;;5033196;28;20568;-76
2021/01/30 11:00:30;;;;;;;22.70;14.47;;;3.60;99.90;;;;;;5033877;28;20513;-76
2021/01/30 11:02:56;;;;;;;17.83;13.50;;;3.50;99.90;;;;;;5034754;28;20556;-76
2021/01/30 11:05:23;;;;;;;16.27;12.60;;;3.60;99.90;;;;;;5024794;28;20453;-76
2021/01/30 11:08:02;;;;;;;16.30;12.37;;;3.60;99.90;;;;;;5031656;28;20663;-76
2021/01/30 11:10:36;;;;;;;16.00;12.17;;;3.70;99.90;;;;;;5033269;28;20556;-76
2021/01/30 11:13:10;;;;;;;24.53;15.27;;;3.70;99.90;;;;;;5034040;28;20984;-76
2021/01/30 11:15:41;;;;;;;17.90;13.70;;;3.70;99.90;;;;;;5030718;28;20793;-76
2021/01/30 11:18:26;;;;;;;18.57;13.90;;;3.70;99.90;;;;;;5034562;28;20402;-75
2021/01/30 11:20:52;;;;;;;22.77;15.97;;;3.70;99.90;;;;;;5032371;28;20438;-77
2021/01/30 11:23:36;;;;;;;18.03;13.20;;;3.70;99.90;;;;;;5026544;28;20822;-76
2021/01/30 11:26:33;;;;;;;16.43;12.80;;;3.70;99.90;;;;;;5031965;28;20186;-76
2021/01/30 11:29:00;;;;;;;18.87;13.97;;;3.70;99.90;;;;;;5032843;28;20866;-76
2021/01/30 11:31:26;;;;;;;20.03;14.10;;;3.70;99.90;;;;;;5032842;28;20472;-76
2021/01/30 11:33:54;;;;;;;20.47;13.43;;;3.70;99.90;;;;;;5033132;28;20932;-76
2021/01/30 11:36:20;;;;;;;20.53;13.33;;;3.70;99.90;;;;;;5033112;28;20171;-76
2021/01/30 11:38:55;;;;;;;18.43;13.70;;;3.70;99.90;;;;;;5020501;28;20466;-75
2021/01/30 11:41:20;;;;;;;19.17;12.80;;;3.80;99.90;;;;;;5027094;28;20457;-76
2021/01/30 11:43:46;;;;;;;16.43;12.10;;;3.90;99.90;;;;;;5033086;28;20472;-76
2021/01/30 11:46:11;;;;;;;15.10;11.60;;;3.90;99.90;;;;;;5032989;28;20187;-76
2021/01/30 11:48:37;;;;;;;13.37;10.03;;;3.90;99.90;;;;;;5031860;28;20261;-76
2021/01/30 11:51:03;;;;;;;15.03;11.97;;;3.80;99.90;;;;;;5031825;28;20209;-76
2021/01/30 11:53:32;;;;;;;13.27;11.60;;;3.80;99.90;;;;;;5032938;28;20175;-76
2021/01/30 11:55:58;;;;;;;12.67;10.13;;;3.80;99.90;;;;;;5032674;28;20167;-76
2021/01/30 11:58:23;;;;;;;15.70;11.93;;;3.80;99.90;;;;;;5030210;28;20430;-76
2021/01/30 12:00:49;;;;;;;14.53;11.50;;;3.80;99.90;;;;;;5022977;28;20441;-76
2021/01/30 12:03:27;;;;;;;13.60;10.27;;;3.90;99.90;;;;;;5015441;28;20229;-76
2021/01/30 12:05:53;;;;;;;15.30;12.10;;;3.80;99.90;;;;;;5033086;28;20521;-75
2021/01/30 12:08:19;;;;;;;14.30;11.10;;;3.90;99.90;;;;;;5028696;28;20438;-75
2021/01/30 12:10:45;;;;;;;14.30;10.80;;;3.90;99.90;;;;;;5026364;28;20575;-75
2021/01/30 12:13:11;;;;;;;16.07;11.23;;;3.90;99.90;;;;;;5032276;28;20596;-76
2021/01/30 12:15:37;;;;;;;15.23;11.40;;;4.00;99.90;;;;;;5029318;28;20416;-77
2021/01/30 12:18:09;;;;;;;13.03;10.77;;;4.00;99.90;;;;;;5030216;28;20168;-77
2021/01/30 12:20:35;;;;;;;15.93;11.40;;;4.00;99.90;;;;;;5015181;28;20408;-77
2021/01/30 12:23:02;;;;;;;13.80;11.43;;;4.00;99.90;;;;;;5032882;28;20481;-77
2021/01/30 12:25:28;;;;;;;14.80;10.83;;;4.10;99.90;;;;;;5032358;28;20488;-77
2021/01/30 12:27:56;;;;;;;33.40;24.33;;;4.10;99.90;;;;;;5032020;28;20431;-76
2021/01/30 12:30:23;;;;;;;18.07;11.23;;;4.10;99.90;;;;;;5033406;28;20480;-77
2021/01/30 12:32:50;;;;;;;15.37;12.13;;;4.20;99.90;;;;;;5035718;28;20996;-77
2021/01/30 12:35:17;;;;;;;11.77;10.10;;;4.30;99.90;;;;;;5026645;28;20485;-77
2021/01/30 12:37:42;;;;;;;12.70;10.47;;;4.30;99.90;;;;;;5027636;28;20426;-77
2021/01/30 12:40:09;;;;;;;15.20;11.83;;;4.30;99.90;;;;;;5031620;28;20495;-78
2021/01/30 12:42:36;;;;;;;12.37;10.77;;;4.30;99.90;;;;;;5031007;28;20278;-77
2021/01/30 12:45:02;;;;;;;14.60;9.43;;;4.40;99.90;;;;;;5031917;28;20487;-77
2021/01/30 12:47:30;;;;;;;12.20;10.37;;;4.40;99.90;;;;;;5031548;28;20421;-77
2021/01/30 12:49:56;;;;;;;11.50;10.17;;;4.50;99.90;;;;;;5032360;28;20580;-77
2021/01/30 12:52:22;;;;;;;12.70;9.10;;;4.50;99.90;;;;;;5033285;28;20445;-77
2021/01/30 12:54:48;;;;;;;11.17;10.00;;;4.50;99.90;;;;;;5033405;28;20399;-77
2021/01/30 12:57:13;;;;;;;11.03;9.70;;;4.50;99.90;;;;;;5033465;28;20408;-77
2021/01/30 12:59:39;;;;;;;14.40;10.90;;;4.30;99.90;;;;;;5033442;28;20571;-77
2021/01/30 13:02:05;;;;;;;9.33;8.53;;;4.40;99.90;;;;;;5030108;28;20196;-77
2021/01/30 13:04:31;;;;;;;9.23;7.97;;;4.30;99.90;;;;;;5014502;28;20208;-77
2021/01/30 13:06:57;;;;;;;10.30;8.30;;;4.20;99.90;;;;;;5012719;28;20923;-77
2021/01/30 13:09:23;;;;;;;7.47;6.67;;;4.20;99.90;;;;;;5013248;28;20403;-77
2021/01/30 13:11:49;;;;;;;8.33;7.13;;;4.20;99.90;;;;;;5013234;28;20462;-77
2021/01/30 13:14:16;;;;;;;7.37;6.30;;;4.10;99.90;;;;;;5034436;28;20186;-77